createdAt,value
2017-12-23T00:01:42.790Z,102883.41
2017-12-23T00:04:10.587Z,102868.84
2017-12-23T00:06:38.322Z,102873.73
2017-12-23T00:09:06.030Z,102868.48
2017-12-23T00:11:33.707Z,102871.04
2017-12-23T00:14:01.369Z,102860.87
2017-12-23T00:18:56.870Z,102841.59
2017-12-23T00:21:24.608Z,102845.06
2017-12-23T00:23:52.297Z,102853.67
2017-12-23T00:26:20.036Z,102846.16
2017-12-23T00:28:47.733Z,102841.66
2017-12-23T00:31:15.394Z,102825.78
2017-12-23T00:33:43.023Z,102826.92
2017-12-23T00:36:10.681Z,102820.26
2017-12-23T00:38:38.303Z,102811.22
2017-12-23T00:41:05.987Z,102808.70
2017-12-23T00:43:33.617Z,102796.55
2017-12-23T00:46:01.285Z,102798.78
2017-12-23T00:48:28.983Z,102798.61
2017-12-23T00:50:56.664Z,102798.29
2017-12-23T00:53:24.355Z,102807.79
2017-12-23T00:55:52.101Z,102813.00
2017-12-23T00:58:19.787Z,102818.53
2017-12-23T01:00:47.559Z,102815.27
2017-12-23T01:03:15.226Z,102814.59
2017-12-23T01:05:42.963Z,102794.39
2017-12-23T01:08:10.645Z,102801.09
2017-12-23T01:10:38.379Z,102810.73
2017-12-23T01:13:05.997Z,102805.23
2017-12-23T01:15:33.729Z,102803.86
2017-12-23T01:18:01.400Z,102813.49
2017-12-23T01:20:29.127Z,102805.13
2017-12-23T01:22:56.751Z,102789.69
2017-12-23T01:25:24.484Z,102786.39
2017-12-23T01:27:52.176Z,102786.85
2017-12-23T01:30:19.894Z,102773.67
2017-12-23T01:32:47.573Z,102762.34
2017-12-23T01:35:15.316Z,102763.55
2017-12-23T01:37:42.992Z,102763.16
2017-12-23T01:40:10.728Z,102749.81
2017-12-23T01:42:38.408Z,102745.73
2017-12-23T01:45:06.171Z,102731.50
2017-12-23T01:47:33.854Z,102725.48
2017-12-23T01:50:01.540Z,102720.91
2017-12-23T01:52:29.208Z,102732.49
2017-12-23T01:54:56.836Z,102731.40
2017-12-23T01:57:24.567Z,102735.86
2017-12-23T01:59:52.196Z,102729.31
2017-12-23T02:02:19.968Z,102723.78
2017-12-23T02:04:47.685Z,102704.48
2017-12-23T02:07:15.399Z,102691.39
2017-12-23T02:09:43.085Z,102698.66
2017-12-23T02:12:10.827Z,102702.73
2017-12-23T02:14:38.508Z,102703.26
2017-12-23T02:17:06.184Z,102693.84
2017-12-23T02:19:33.820Z,102696.11
2017-12-23T02:22:01.482Z,102692.11
2017-12-23T02:24:29.108Z,102694.13
2017-12-23T02:26:56.789Z,102690.34
2017-12-23T02:29:24.420Z,102677.98
2017-12-23T02:31:52.093Z,102665.34
2017-12-23T02:34:19.781Z,102652.56
2017-12-23T02:36:47.519Z,102649.95
2017-12-23T02:39:15.205Z,102635.61
2017-12-23T02:41:42.886Z,102615.44
2017-12-23T02:44:10.594Z,102612.54
2017-12-23T02:46:38.263Z,102616.16
2017-12-23T02:49:06.003Z,102618.84
2017-12-23T02:51:33.726Z,102617.64
2017-12-23T02:54:01.352Z,102624.72
2017-12-23T02:56:29.083Z,102624.55
2017-12-23T02:58:56.709Z,102620.76
2017-12-23T03:01:24.488Z,102621.11
2017-12-23T03:03:52.140Z,102602.01
2017-12-23T03:06:19.898Z,102596.06
2017-12-23T03:08:47.525Z,102583.42
2017-12-23T03:11:15.256Z,102583.60
2017-12-23T03:13:42.948Z,102584.73
2017-12-23T03:16:10.678Z,102574.09
2017-12-23T03:18:38.389Z,102563.73
2017-12-23T03:21:06.105Z,102569.89
2017-12-23T03:23:33.800Z,102575.72
2017-12-23T03:26:01.416Z,102574.94
2017-12-23T03:28:29.139Z,102571.83
2017-12-23T03:30:56.804Z,102576.20
2017-12-23T03:33:24.525Z,102572.25
2017-12-23T03:35:52.147Z,102580.42
2017-12-23T03:38:19.880Z,102572.63
2017-12-23T03:40:47.570Z,102571.84
2017-12-23T03:43:15.320Z,102573.29
2017-12-23T03:45:43.010Z,102568.44
2017-12-23T03:48:10.740Z,102568.86
2017-12-23T03:50:38.358Z,102554.09
2017-12-23T03:53:06.086Z,102536.32
2017-12-23T03:55:33.773Z,102544.61
2017-12-23T03:58:01.506Z,102552.42
2017-12-23T04:00:29.194Z,102548.81
2017-12-23T04:02:56.854Z,102544.87
2017-12-23T04:05:24.537Z,102537.61
2017-12-23T04:07:52.263Z,102531.37
2017-12-23T04:10:19.947Z,102530.09
2017-12-23T04:12:47.695Z,102539.94
2017-12-23T04:15:15.324Z,102548.41
2017-12-23T04:17:43.059Z,102537.31
2017-12-23T04:20:10.763Z,102532.15
2017-12-23T04:22:38.436Z,102526.45
2017-12-23T04:25:06.131Z,102523.38
2017-12-23T04:27:33.881Z,102523.06
2017-12-23T04:30:01.518Z,102509.99
2017-12-23T04:32:29.241Z,102505.53
2017-12-23T04:34:56.870Z,102494.43
2017-12-23T04:37:24.610Z,102496.23
2017-12-23T04:39:52.239Z,102476.25
2017-12-23T04:42:19.963Z,102480.68
2017-12-23T04:44:47.648Z,102481.30
2017-12-23T04:47:15.382Z,102479.07
2017-12-23T04:49:43.107Z,102457.09
2017-12-23T04:52:10.841Z,102459.27
2017-12-23T04:54:38.540Z,102453.06
2017-12-23T04:57:06.270Z,102467.30
2017-12-23T04:59:33.954Z,102448.92
2017-12-23T05:02:01.623Z,102445.15
2017-12-23T05:04:29.299Z,102447.37
2017-12-23T05:06:56.926Z,102448.28
2017-12-23T05:09:24.660Z,102447.83
2017-12-23T05:11:52.275Z,102441.45
2017-12-23T05:14:20.019Z,102442.50
2017-12-23T05:16:47.707Z,102453.05
2017-12-23T05:19:15.459Z,102447.41
2017-12-23T05:21:43.081Z,102444.81
2017-12-23T05:24:10.811Z,102456.87
2017-12-23T05:26:38.505Z,102464.94
2017-12-23T05:29:06.234Z,102452.14
2017-12-23T05:31:33.914Z,102452.48
2017-12-23T05:34:01.585Z,102449.17
2017-12-23T05:36:29.269Z,102449.34
2017-12-23T05:38:56.937Z,102449.55
2017-12-23T05:41:24.616Z,102437.38
2017-12-23T05:43:52.288Z,102437.08
2017-12-23T05:46:19.978Z,102439.13
2017-12-23T05:48:47.695Z,102424.32
2017-12-23T05:51:15.323Z,102443.44
2017-12-23T05:53:43.000Z,102434.84
2017-12-23T05:56:10.620Z,102433.72
2017-12-23T05:58:38.395Z,102433.45
2017-12-23T06:01:06.131Z,102432.81
2017-12-23T06:03:33.869Z,102435.11
2017-12-23T06:06:01.499Z,102410.97
2017-12-23T06:08:29.229Z,102419.73
2017-12-23T06:10:56.844Z,102410.34
2017-12-23T06:13:24.564Z,102417.84
2017-12-23T06:15:52.264Z,102409.85
2017-12-23T06:18:20.008Z,102397.67
2017-12-23T06:20:47.705Z,102393.38
2017-12-23T06:23:15.441Z,102394.96
2017-12-23T06:25:43.127Z,102387.04
2017-12-23T06:28:10.799Z,102379.64
2017-12-23T06:30:38.437Z,102380.29
2017-12-23T06:33:06.183Z,102370.86
2017-12-23T06:35:33.864Z,102377.95
2017-12-23T06:38:01.591Z,102363.52
2017-12-23T06:40:29.277Z,102357.20
2017-12-23T06:42:57.003Z,102345.70
2017-12-23T06:45:24.706Z,102336.16
2017-12-23T06:47:52.411Z,102344.19
2017-12-23T06:50:20.145Z,102336.16
2017-12-23T06:52:47.834Z,102345.24
2017-12-23T06:55:15.572Z,102334.91
2017-12-23T06:57:43.277Z,102302.33
2017-12-23T07:00:11.006Z,102300.79
2017-12-23T07:02:38.743Z,102280.82
2017-12-23T07:05:06.424Z,102275.76
2017-12-23T07:07:34.044Z,102254.02
2017-12-23T07:10:01.714Z,102261.51
2017-12-23T07:12:29.406Z,102260.20
2017-12-23T07:14:57.204Z,102272.81
2017-12-23T07:17:24.892Z,102281.91
2017-12-23T07:19:52.572Z,102278.27
2017-12-23T07:22:20.258Z,102292.84
2017-12-23T07:24:47.989Z,102276.63
2017-12-23T07:27:15.676Z,102271.13
2017-12-23T07:29:43.386Z,102276.16
2017-12-23T07:32:11.089Z,102280.09
2017-12-23T07:34:38.832Z,102279.62
2017-12-23T07:37:06.516Z,102274.71
2017-12-23T07:39:34.276Z,102273.71
2017-12-23T07:42:01.967Z,102268.33
2017-12-23T07:44:29.695Z,102279.70
2017-12-23T07:46:57.439Z,102279.48
2017-12-23T07:49:25.178Z,102287.13
2017-12-23T07:51:52.871Z,102289.55
2017-12-23T07:54:20.600Z,102290.24
2017-12-23T07:56:48.298Z,102287.20
2017-12-23T07:59:16.017Z,102274.22
2017-12-23T08:01:43.758Z,102272.02
2017-12-23T08:04:11.494Z,102277.36
2017-12-23T08:06:39.198Z,102273.09
2017-12-23T08:09:06.868Z,102271.63
2017-12-23T08:11:34.555Z,102281.86
2017-12-23T08:14:02.319Z,102262.78
2017-12-23T08:16:29.940Z,102277.27
2017-12-23T08:18:57.628Z,102274.51
2017-12-23T08:21:25.340Z,102264.13
2017-12-23T08:23:53.040Z,102256.04
2017-12-23T08:26:20.723Z,102253.73
2017-12-23T08:28:48.422Z,102273.50
2017-12-23T08:31:16.174Z,102273.84
2017-12-23T08:33:43.862Z,102269.33
2017-12-23T08:36:11.625Z,102288.45
2017-12-23T08:38:39.339Z,102290.67
2017-12-23T08:41:07.024Z,102295.44
2017-12-23T08:43:34.751Z,102286.59
2017-12-23T08:46:02.548Z,102279.16
2017-12-23T08:48:30.229Z,102284.30
2017-12-23T08:50:57.967Z,102277.53
2017-12-23T08:53:25.671Z,102269.25
2017-12-23T08:55:53.399Z,102257.70
2017-12-23T08:58:21.084Z,102261.52
2017-12-23T09:00:48.825Z,102258.88
2017-12-23T09:03:16.584Z,102257.37
2017-12-23T09:05:44.266Z,102248.36
2017-12-23T09:08:19.255Z,102256.88
2017-12-23T09:10:46.927Z,102261.09
2017-12-23T09:13:14.720Z,102269.44
2017-12-23T09:15:42.419Z,102275.02
2017-12-23T09:18:10.047Z,102289.44
2017-12-23T09:20:37.785Z,102283.75
2017-12-23T09:23:05.466Z,102269.25
2017-12-23T09:25:33.143Z,102271.36
2017-12-23T09:28:00.771Z,102267.50
2017-12-23T09:30:28.447Z,102261.42
2017-12-23T09:32:56.142Z,102250.38
2017-12-23T09:35:23.885Z,102246.82
2017-12-23T09:37:51.592Z,102238.62
2017-12-23T09:40:19.327Z,102237.69
2017-12-23T09:42:46.955Z,102228.41
2017-12-23T09:45:14.623Z,102223.73
2017-12-23T09:47:42.312Z,102214.71
2017-12-23T09:50:10.029Z,102215.45
2017-12-23T09:52:37.656Z,102220.45
2017-12-23T09:55:05.380Z,102201.78
2017-12-23T09:57:33.078Z,102216.36
2017-12-23T10:00:00.760Z,102205.44
2017-12-23T10:02:28.496Z,102194.64
2017-12-23T10:04:56.279Z,102197.41
2017-12-23T10:07:23.916Z,102198.67
2017-12-23T10:09:51.589Z,102199.80
2017-12-23T10:12:19.330Z,102191.36
2017-12-23T10:14:47.023Z,102189.70
2017-12-23T10:17:14.759Z,102180.57
2017-12-23T10:19:44.680Z,102189.31
2017-12-23T10:22:14.856Z,102193.77
2017-12-23T10:24:43.264Z,102170.31
2017-12-23T10:27:11.047Z,102183.22
2017-12-23T10:29:38.677Z,102168.38
2017-12-23T10:32:06.400Z,102166.88
2017-12-23T10:34:34.022Z,102161.61
2017-12-23T10:37:01.699Z,102166.75
2017-12-23T10:39:29.332Z,102148.73
2017-12-23T10:41:57.086Z,102155.99
2017-12-23T10:44:24.766Z,102155.87
2017-12-23T10:46:52.431Z,102152.41
2017-12-23T10:49:20.125Z,102151.86
2017-12-23T10:51:47.803Z,102155.20
2017-12-23T10:54:15.503Z,102150.33
2017-12-23T10:56:43.291Z,102132.88
2017-12-23T10:59:10.971Z,102118.72
2017-12-23T11:01:38.649Z,102088.48
2017-12-23T11:04:06.270Z,102115.42
2017-12-23T11:06:34.046Z,102100.03
2017-12-23T11:09:01.733Z,102113.09
2017-12-23T11:11:29.463Z,102105.88
2017-12-23T11:13:57.147Z,102109.62
2017-12-23T11:16:24.833Z,102096.19
2017-12-23T11:18:52.477Z,102086.19
2017-12-23T11:21:20.217Z,102090.21
2017-12-23T11:23:47.832Z,102093.28
2017-12-23T11:26:15.570Z,102087.07
2017-12-23T11:28:43.185Z,102085.82
2017-12-23T11:31:10.856Z,102091.37
2017-12-23T11:33:38.485Z,102086.53
2017-12-23T11:36:06.152Z,102065.72
2017-12-23T11:38:33.910Z,102068.48
2017-12-23T11:41:01.585Z,102054.19
2017-12-23T11:43:29.223Z,102053.89
2017-12-23T11:45:56.907Z,102060.16
2017-12-23T11:48:24.600Z,102059.20
2017-12-23T11:50:52.279Z,102065.31
2017-12-23T11:53:19.907Z,102061.40
2017-12-23T11:55:47.548Z,102046.30
2017-12-23T11:58:15.340Z,102042.70
2017-12-23T12:00:43.012Z,102032.28
2017-12-23T12:03:10.700Z,102038.10
2017-12-23T12:05:38.345Z,102025.73
2017-12-23T12:08:06.009Z,102018.55
2017-12-23T12:10:33.652Z,102010.06
2017-12-23T12:13:01.324Z,102008.12
2017-12-23T12:15:28.964Z,102019.23
2017-12-23T12:17:56.701Z,101996.34
2017-12-23T12:20:24.383Z,101986.75
2017-12-23T12:22:52.049Z,101994.53
2017-12-23T12:25:19.753Z,101992.02
2017-12-23T12:27:47.477Z,101984.28
2017-12-23T12:30:15.143Z,101968.42
2017-12-23T12:32:42.875Z,101983.44
2017-12-23T12:35:10.687Z,101984.11
2017-12-23T12:37:38.427Z,101983.02
2017-12-23T12:40:06.117Z,101982.89
2017-12-23T12:42:33.859Z,101980.11
2017-12-23T12:45:01.501Z,101976.48
2017-12-23T12:47:29.189Z,101972.16
2017-12-23T12:49:56.822Z,101968.42
2017-12-23T12:52:24.508Z,101975.66
2017-12-23T12:54:52.196Z,101965.23
2017-12-23T12:57:19.880Z,101943.86
2017-12-23T12:59:47.566Z,101974.41
2017-12-23T13:02:15.260Z,101948.44
2017-12-23T13:04:42.886Z,101976.21
2017-12-23T13:07:10.642Z,101977.73
2017-12-23T13:09:38.346Z,101974.41
2017-12-23T13:12:06.012Z,101962.04
2017-12-23T13:14:33.660Z,101957.75
2017-12-23T13:17:01.332Z,101961.91
2017-12-23T13:19:28.952Z,101954.12
2017-12-23T13:21:56.650Z,101952.06
2017-12-23T13:24:24.279Z,101942.89
2017-12-23T13:26:52.009Z,101945.54
2017-12-23T13:29:19.637Z,101942.05
2017-12-23T13:31:47.338Z,101945.25
2017-12-23T13:34:14.970Z,101940.80
2017-12-23T13:36:42.603Z,101952.07
2017-12-23T13:39:10.280Z,101956.23
2017-12-23T13:41:37.929Z,101930.10
2017-12-23T13:44:05.616Z,101947.19
2017-12-23T13:46:33.256Z,101930.94
2017-12-23T13:49:00.944Z,101941.63
2017-12-23T13:51:28.572Z,101939.70
2017-12-23T13:53:56.261Z,101943.16
2017-12-23T13:56:23.950Z,101944.55
2017-12-23T13:58:51.648Z,101929.55
2017-12-23T14:01:19.383Z,101922.86
2017-12-23T14:03:47.213Z,101947.61
2017-12-23T14:06:14.921Z,101952.33
2017-12-23T14:08:42.708Z,101959.27
2017-12-23T14:11:10.404Z,101945.67
2017-12-23T14:13:38.105Z,101945.25
2017-12-23T14:16:05.745Z,101951.23
2017-12-23T14:18:33.435Z,101938.14
2017-12-23T14:21:01.052Z,101914.14
2017-12-23T14:23:28.732Z,101942.73
2017-12-23T14:25:56.421Z,101945.13
2017-12-23T14:28:24.104Z,101954.01
2017-12-23T14:30:51.791Z,101957.05
2017-12-23T14:33:19.460Z,101906.48
2017-12-23T14:35:47.108Z,101932.05
2017-12-23T14:38:14.859Z,101928.72
2017-12-23T14:40:42.512Z,101940.67
2017-12-23T14:43:10.204Z,101939.57
2017-12-23T14:45:37.882Z,101943.87
2017-12-23T14:48:05.647Z,101938.98
2017-12-23T14:50:33.272Z,101931.08
2017-12-23T14:53:01.008Z,101942.19
2017-12-23T14:55:28.642Z,101931.23
2017-12-23T14:57:56.318Z,101944.28
2017-12-23T15:00:23.978Z,101937.34
2017-12-23T15:02:51.662Z,101936.62
2017-12-23T15:05:19.306Z,101933.30
2017-12-23T15:07:46.982Z,101944.41
2017-12-23T15:10:14.671Z,101939.56
2017-12-23T15:12:42.446Z,101940.95
2017-12-23T15:15:10.168Z,101934.85
2017-12-23T15:17:37.831Z,101934.98
2017-12-23T15:20:05.501Z,101924.97
2017-12-23T15:22:33.143Z,101910.11
2017-12-23T15:25:00.932Z,101902.07
2017-12-23T15:27:28.705Z,101928.72
2017-12-23T15:29:56.388Z,101909.28
2017-12-23T15:32:24.006Z,101921.77
2017-12-23T15:34:51.685Z,101926.52
2017-12-23T15:37:19.373Z,101918.45
2017-12-23T15:39:47.136Z,101901.91
2017-12-23T15:42:14.772Z,101904.84
2017-12-23T15:44:42.502Z,101900.27
2017-12-23T15:47:10.195Z,101894.16
2017-12-23T15:49:37.959Z,101906.50
2017-12-23T15:52:05.692Z,101897.20
2017-12-23T15:54:33.432Z,101896.39
2017-12-23T15:57:01.135Z,101887.06
2017-12-23T15:59:28.858Z,101898.88
2017-12-23T16:01:56.606Z,101892.06
2017-12-23T16:04:24.376Z,101886.25
2017-12-23T16:06:52.012Z,101875.27
2017-12-23T16:09:19.740Z,101898.88
2017-12-23T16:11:47.439Z,101880.95
2017-12-23T16:14:15.188Z,101880.95
2017-12-23T16:16:42.926Z,101875.81
2017-12-23T16:19:10.663Z,101885.11
2017-12-23T16:21:38.314Z,101862.89
2017-12-23T16:24:06.068Z,101873.03
2017-12-23T16:26:33.771Z,101859.70
2017-12-23T16:29:01.520Z,101866.92
2017-12-23T16:31:29.263Z,101867.34
2017-12-23T16:33:57.075Z,101859.97
2017-12-23T16:36:24.814Z,101857.75
2017-12-23T16:38:52.587Z,101851.89
2017-12-23T16:41:20.287Z,101857.19
2017-12-23T16:43:48.034Z,101858.71
2017-12-23T16:46:15.670Z,101862.58
2017-12-23T16:48:43.453Z,101843.14
2017-12-23T16:51:11.105Z,101858.41
2017-12-23T16:53:38.792Z,101871.21
2017-12-23T16:56:06.540Z,101868.43
2017-12-23T16:58:34.280Z,101849.23
2017-12-23T17:01:02.024Z,101843.42
2017-12-23T17:03:29.657Z,101871.03
2017-12-23T17:05:57.403Z,101859.38
2017-12-23T17:08:25.090Z,101871.63
2017-12-23T17:10:52.849Z,101857.86
2017-12-23T17:13:20.469Z,101844.52
2017-12-23T17:15:48.219Z,101865.22
2017-12-23T17:18:15.928Z,101849.81
2017-12-23T17:20:43.612Z,101868.00
2017-12-23T17:23:11.236Z,101857.55
2017-12-23T17:25:39.039Z,101858.25
2017-12-23T17:28:21.684Z,101844.62
2017-12-23T17:30:49.473Z,101839.58
2017-12-23T17:33:17.182Z,101840.84
2017-12-23T17:35:44.975Z,101850.58
2017-12-23T17:38:12.663Z,101782.22
2017-12-23T17:40:40.356Z,101831.41
2017-12-23T17:43:08.110Z,101820.84
2017-12-23T17:45:35.780Z,101815.28
2017-12-23T17:48:03.409Z,101813.45
2017-12-23T17:50:31.124Z,101824.86
2017-12-23T17:52:58.819Z,101806.63
2017-12-23T17:55:26.540Z,101815.25
2017-12-23T17:57:54.236Z,101810.36
2017-12-23T18:00:21.970Z,101819.66
2017-12-23T18:02:49.678Z,101838.33
2017-12-23T18:05:17.424Z,101816.20
2017-12-23T18:07:45.105Z,101819.95
2017-12-23T18:10:12.778Z,101820.80
2017-12-23T18:12:40.509Z,101828.42
2017-12-23T18:15:08.233Z,101812.16
2017-12-23T18:17:35.858Z,101815.91
2017-12-23T18:20:03.670Z,101816.75
2017-12-23T18:22:31.360Z,101818.14
2017-12-23T18:24:59.082Z,101833.71
2017-12-23T18:27:26.758Z,101812.58
2017-12-23T18:29:54.546Z,101820.66
2017-12-23T18:32:22.323Z,101821.19
2017-12-23T18:34:50.042Z,101833.41
2017-12-23T18:37:17.703Z,101812.98
2017-12-23T18:39:45.446Z,101821.99
2017-12-23T18:42:13.152Z,101813.37
2017-12-23T18:44:40.810Z,101831.16
2017-12-23T18:47:08.536Z,101834.09
2017-12-23T18:49:36.261Z,101845.61
2017-12-23T18:52:03.989Z,101839.92
2017-12-23T18:54:31.686Z,101830.89
2017-12-23T18:56:59.406Z,101841.01
2017-12-23T18:59:27.082Z,101840.73
2017-12-23T19:01:54.915Z,101851.14
2017-12-23T19:04:22.603Z,101838.49
2017-12-23T19:06:50.394Z,101854.09
2017-12-23T19:09:18.144Z,101850.59
2017-12-23T19:11:45.882Z,101855.31
2017-12-23T19:14:13.630Z,101844.64
2017-12-23T19:16:53.288Z,101841.41
2017-12-23T19:19:20.985Z,101845.17
2017-12-23T19:21:48.665Z,101837.54
2017-12-23T19:24:16.355Z,101834.88
2017-12-23T19:26:44.139Z,101835.19
2017-12-23T19:29:11.835Z,101826.95
2017-12-23T19:31:39.570Z,101818.62
2017-12-23T19:34:07.293Z,101806.30
2017-12-23T19:36:35.069Z,101808.78
2017-12-23T19:39:02.890Z,101835.05
2017-12-23T19:41:30.679Z,101818.91
2017-12-23T19:43:58.313Z,101822.53
2017-12-23T19:46:26.028Z,101821.81
2017-12-23T19:48:53.706Z,101811.66
2017-12-23T19:51:21.483Z,101815.01
2017-12-23T19:53:49.149Z,101808.34
2017-12-23T19:56:16.871Z,101804.70
2017-12-23T19:58:44.543Z,101803.73
2017-12-23T20:01:12.267Z,101805.11
2017-12-23T20:03:39.941Z,101818.19
2017-12-23T20:06:07.674Z,101814.75
2017-12-23T20:08:35.298Z,101814.22
2017-12-23T20:11:03.037Z,101803.52
2017-12-23T20:13:31.021Z,101786.75
2017-12-23T20:15:59.259Z,101804.55
2017-12-23T20:18:26.943Z,101800.09
2017-12-23T20:20:54.834Z,101809.58
2017-12-23T20:23:22.570Z,101788.73
2017-12-23T20:25:50.308Z,101798.50
2017-12-23T20:28:18.008Z,101764.29
2017-12-23T20:30:45.741Z,101802.23
2017-12-23T20:33:13.448Z,101795.41
2017-12-23T20:35:41.216Z,101785.68
2017-12-23T20:38:08.955Z,101774.67
2017-12-23T20:40:36.647Z,101796.66
2017-12-23T20:43:04.442Z,101789.42
2017-12-23T20:45:32.123Z,101794.02
2017-12-23T20:47:59.903Z,101767.59
2017-12-23T20:50:27.662Z,101787.48
2017-12-23T20:52:55.457Z,101796.92
2017-12-23T20:55:23.165Z,101816.27
2017-12-23T20:57:50.968Z,101821.28
2017-12-23T21:00:18.768Z,101803.31
2017-12-23T21:02:46.604Z,101802.64
2017-12-23T21:05:14.356Z,101804.15
2017-12-23T21:07:42.137Z,101790.91
2017-12-23T21:10:09.867Z,101779.08
2017-12-23T21:12:37.612Z,101795.92
2017-12-23T21:15:05.294Z,101806.37
2017-12-23T21:17:33.093Z,101813.47
2017-12-23T21:20:00.736Z,101800.84
2017-12-23T21:22:28.524Z,101788.00
2017-12-23T21:24:56.268Z,101787.31
2017-12-23T21:27:24.056Z,101790.36
2017-12-23T21:29:51.801Z,101794.53
2017-12-23T21:32:19.529Z,101779.80
2017-12-23T21:34:47.277Z,101797.75
2017-12-23T21:37:15.024Z,101807.90
2017-12-23T21:39:42.764Z,101781.78
2017-12-23T21:42:10.501Z,101804.82
2017-12-23T21:44:38.256Z,101785.67
2017-12-23T21:47:06.040Z,101793.28
2017-12-23T21:49:33.796Z,101806.37
2017-12-23T21:52:01.576Z,101810.13
2017-12-23T21:54:29.330Z,101810.79
2017-12-23T21:56:57.060Z,101803.41
2017-12-23T21:59:24.744Z,101794.11
2017-12-23T22:01:52.457Z,101789.27
2017-12-23T22:04:20.135Z,101795.80
2017-12-23T22:06:47.848Z,101794.82
2017-12-23T22:09:17.319Z,101801.77
2017-12-23T22:11:45.055Z,101773.27
2017-12-23T22:14:12.796Z,101783.41
2017-12-23T22:16:40.502Z,101777.43
2017-12-23T22:19:08.186Z,101782.14
2017-12-23T22:21:35.871Z,101785.20
2017-12-23T22:24:03.595Z,101782.55
2017-12-23T22:26:31.288Z,101779.09
2017-12-23T22:28:59.068Z,101777.43
2017-12-23T22:31:26.831Z,101786.28
2017-12-23T22:33:54.615Z,101778.69
2017-12-23T22:36:22.358Z,101759.50
2017-12-23T22:38:50.123Z,101773.98
2017-12-23T22:41:17.847Z,101764.08
2017-12-23T22:43:45.645Z,101761.85
2017-12-23T22:46:13.398Z,101760.30
2017-12-23T22:48:41.131Z,101736.67
2017-12-23T22:51:08.857Z,101748.89
2017-12-23T22:53:36.698Z,101747.95
2017-12-23T22:56:04.446Z,101739.89
2017-12-23T22:58:32.200Z,101727.81
2017-12-23T23:00:59.946Z,101730.12
2017-12-23T23:03:27.771Z,101743.93
2017-12-23T23:05:55.521Z,101748.52
2017-12-23T23:08:23.300Z,101732.67
2017-12-23T23:10:51.925Z,101750.34
2017-12-23T23:13:19.676Z,101742.44
2017-12-23T23:15:47.355Z,101737.98
2017-12-23T23:18:15.133Z,101750.36
2017-12-23T23:20:42.866Z,101740.09
2017-12-23T23:23:10.682Z,101747.17
2017-12-23T23:25:38.414Z,101740.48
2017-12-23T23:28:06.135Z,101733.67
2017-12-23T23:30:33.864Z,101740.05
2017-12-23T23:33:01.585Z,101730.61
2017-12-23T23:35:29.327Z,101711.84
2017-12-23T23:37:57.064Z,101715.86
2017-12-23T23:40:24.747Z,101708.66
2017-12-23T23:42:52.523Z,101696.03
2017-12-23T23:45:20.242Z,101669.02
2017-12-23T23:47:47.919Z,101695.73
2017-12-23T23:50:15.650Z,101693.27
2017-12-23T23:52:43.390Z,101700.47
2017-12-23T23:55:11.105Z,101708.69
2017-12-23T23:57:38.769Z,101694.05
